Latest Weather Observations for Ouse

IDT60801

Issued at 7:02 am EST Thursday 28 July 2016 (issued every 30 minutes, with the page automatically refreshed every 10 minutes)

About weather observations | Map of weather stations | Latest weather observations for TAS | Other Formats
Station Details ID: 095048 Name: OUSE FIRE STATION Lat: -42.48 Lon: 146.71 Height: 90.0 m
Data from the previous 72 hours. | See also: Recent months at Ouse
Date/Time
EST
Temp
°C
App
Temp
°C
Dew
Point
°C
Rel
Hum
%
Delta-T
°C
Wind Press
QNH
hPa
Press
MSL
hPa
Rain since
9am
mm
Dir  Spd
km/h
Gust
km/h
Spd
kts
Gust
kts
28/07:00am 10.5 4.3 6.1 74 2.1 WNW 28 48 15 26 1007.4 1007.6 0.8
28/06:54am 10.8 4.6 6.0 72 2.2 WNW 28 46 15 25 1007.4 1007.6 0.8
28/06:30am 10.3 5.8 5.9 74 2.0 WNW 19 30 10 16 1007.2 1007.4 0.8
28/06:00am 9.6 5.9 6.1 79 1.6 NW 15 30 8 16 1007.3 1007.5 0.8
28/05:30am 7.4 4.6 5.2 86 1.0 N 9 13 5 7 1007.5 1007.7 0.8
28/05:00am 8.4 5.3 5.7 83 1.2 N 11 17 6 9 1007.7 1007.9 0.8
28/04:30am 9.4 5.8 5.2 75 1.9 NNW 13 24 7 13 1008.1 1008.3 0.6
28/04:00am 9.7 6.0 4.5 70 2.3 NW 13 22 7 12 1008.3 1008.5 0.6
28/03:30am 9.7 5.2 4.3 69 2.4 NW 17 32 9 17 1008.4 1008.6 0.6
28/03:00am 9.7 4.3 4.3 69 2.4 WNW 22 35 12 19 1009.0 1009.2 0.6
28/02:30am 9.1 4.3 4.5 73 2.0 WNW 19 30 10 16 1008.8 1009.0 0.6
28/02:00am 8.9 3.9 4.7 75 1.9 WNW 20 43 11 23 1008.8 1009.0 0.6
28/01:30am 9.4 4.0 4.4 71 2.2 WNW 22 43 12 23 1008.6 1008.8 0.6
28/01:10am 9.9 3.3 4.3 68 2.5 WNW 28 54 15 29 1008.4 1008.6 0.6
28/01:00am 9.7 4.3 4.3 69 2.4 WNW 22 33 12 18 1008.4 1008.6 0.6
28/12:30am 9.6 3.8 4.2 69 2.4 WNW 24 39 13 21 1008.2 1008.4 0.6
28/12:00am 9.6 4.1 4.0 68 2.5 WNW 22 39 12 21 1008.3 1008.5 0.6
 
Date/Time
EST
Temp
°C
App
Temp
°C
Dew
Point
°C
Rel
Hum
%
Delta-T
°C
Wind Press
QNH
hPa
Press
MSL
hPa
Rain since
9am
mm
Dir  Spd
km/h
Gust
km/h
Spd
kts
Gust
kts
27/11:30pm 9.9 4.8 4.1 67 2.6 WNW 20 32 11 17 1008.5 1008.7 0.6
27/11:00pm 9.7 4.8 3.9 67 2.6 NW 19 30 10 16 1008.0 1008.2 0.6
27/10:30pm 9.6 5.0 3.6 66 2.6 NW 17 28 9 15 1007.8 1008.0 0.6
27/10:00pm 9.8 4.6 3.5 65 2.8 WNW 20 32 11 17 1007.5 1007.7 0.6
27/09:30pm 9.8 5.6 4.0 67 2.6 WNW 15 28 8 15 1007.3 1007.5 0.6
27/09:00pm 10.0 5.1 5.0 71 2.3 WNW 20 35 11 19 1006.7 1006.9 0.6
27/08:30pm 9.7 6.1 5.1 73 2.1 WSW 13 32 7 17 1005.9 1006.1 0.6
27/08:00pm 9.6 5.4 5.6 76 1.8 W 17 28 9 15 1004.8 1005.0 0.6
27/07:30pm 8.1 5.1 6.1 87 0.9 NNW 11 20 6 11 1004.3 1004.6 0.6
27/07:00pm 8.0 4.2 5.8 86 1.0 NW 15 24 8 13 1003.6 1003.9 0.6
27/06:30pm 7.1 2.3 4.8 85 1.0 NW 19 32 10 17 1003.5 1003.8 0.4
27/06:00pm 6.3 1.1 3.8 84 1.1 NW 20 33 11 18 1003.2 1003.5 0.2
27/05:30pm 5.9 0.7 3.4 84 1.1 NW 20 33 11 18 1003.1 1003.4 0.2
27/05:00pm 5.9 0.9 3.6 85 1.0 NW 19 33 10 18 1003.8 1004.1 0.2
27/04:30pm 6.8 2.1 3.1 77 1.6 WNW 17 30 9 16 1004.2 1004.5 0.0
27/04:00pm 7.2 1.4 2.3 71 2.0 WNW 22 43 12 23 1003.4 1003.7 0.0
27/03:30pm 7.4 0.4 2.1 69 2.2 NW 28 44 15 24 1003.5 1003.8 0.0
27/03:00pm 7.8 2.3 2.1 67 2.4 WNW 20 35 11 19 1004.0 1004.3 0.0
27/02:30pm 7.9 2.5 2.4 68 2.3 NW 20 39 11 21 1004.4 1004.7 0.0
27/02:00pm 8.1 2.7 2.4 67 2.4 NW 20 35 11 19 1004.3 1004.6 0.0
27/01:36pm 8.2 1.1 1.4 62 2.8 NW 28 54 15 29 1004.5 1004.8 0.0
27/01:30pm 8.4 2.1 1.6 62 2.8 WNW 24 48 13 26 1004.5 1004.8 0.0
27/01:00pm 8.6 2.7 1.7 62 2.9 NW 22 35 12 19 1004.9 1005.1 0.0
27/12:30pm 8.4 3.0 1.3 61 2.9 NW 19 26 10 14 1005.0 1005.2 0.0
27/12:00pm 8.5 2.5 1.0 59 3.1 WNW 22 41 12 22 1005.1 1005.3 0.0
27/11:30am 8.2 2.7 0.4 58 3.1 WNW 19 28 10 15 1005.0 1005.2 0.0
27/11:00am 8.0 1.1 0.0 57 3.2 W 26 46 14 25 1005.2 1005.4 0.0
27/10:36am 7.3 -0.1 -0.4 58 3.0 W 28 48 15 26 1005.2 1005.4 0.0
27/10:30am 7.3 0.8 0.1 60 2.8 W 24 48 13 26 1005.2 1005.4 0.0
27/10:00am 6.9 2.2 0.8 65 2.4 WNW 15 30 8 16 1004.9 1005.1 0.0
27/09:30am 6.4 1.6 0.3 65 2.4 NW 15 26 8 14 1004.5 1004.8 0.0
27/09:00am 6.2 1.0 0.1 65 2.4 NW 17 28 9 15 1004.5 1004.8 4.2
27/08:30am 6.2 0.9 -0.3 63 2.5 WNW 17 30 9 16 1004.3 1004.6 4.2
27/08:00am 5.8 0.6 0.0 66 2.3 WNW 17 37 9 20 1003.7 1004.0 4.2
27/07:30am 4.9 0.1 0.1 71 1.8 W 15 26 8 14 1003.3 1003.6 4.2
27/07:00am 4.5 0.9 0.3 74 1.6 WNW 9 17 5 9 1002.7 1003.0 4.2
27/06:30am 4.6 0.6 0.6 75 1.5 WNW 11 19 6 10 1002.0 1002.3 4.2
27/06:00am 3.9 0.5 1.8 86 0.8 NW 9 17 5 9 1001.4 1001.7 4.2
27/05:30am 4.1 0.7 1.8 85 0.9 NNW 9 13 5 7 1000.9 1001.2 4.2
27/05:00am 5.0 1.0 2.9 86 0.9 W 13 17 7 9 1000.1 1000.3 4.2
27/04:30am 5.6 0.9 2.9 83 1.1 WNW 17 22 9 12 999.2 999.4 3.8
27/04:00am 4.9 0.9 2.8 86 0.9 WNW 13 17 7 9 998.4 998.6 3.8
27/03:30am 5.6 1.4 3.6 87 0.8 WNW 15 22 8 12 997.8 998.0 3.8
27/03:00am 5.7 2.0 4.5 92 0.5 NNW 13 19 7 10 996.9 997.1 3.8
27/02:30am 5.8 3.0 5.1 95 0.3 NW 9 13 5 7 996.1 996.3 3.8
27/02:00am 4.1 0.7 4.0 99 0.0 N 11 17 6 9 995.2 995.4 2.8
27/01:30am 2.2 -0.6 2.1 99 0.0 N 6 9 3 5 995.0 995.2 1.2
27/01:00am 2.5 0.9 2.4 99 0.0 CALM 0 0 0 0 995.0 995.2 1.2
27/12:30am 2.5 0.5 2.4 99 0.0 N 2 6 1 3 995.3 995.5 1.0
27/12:00am 1.6 -0.2 1.2 97 0.2 CALM 0 0 0 0 995.3 995.5 0.8
 
Date/Time
EST
Temp
°C
App
Temp
°C
Dew
Point
°C
Rel
Hum
%
Delta-T
°C
Wind Press
QNH
hPa
Press
MSL
hPa
Rain since
9am
mm
Dir  Spd
km/h
Gust
km/h
Spd
kts
Gust
kts
26/11:30pm 2.3 -0.7 1.7 96 0.2 N 7 9 4 5 995.9 996.1 0.8
26/11:00pm 2.8 -0.9 2.2 96 0.2 N 11 15 6 8 996.5 996.7 0.8
26/10:30pm 2.4 -0.7 1.4 93 0.4 NNW 7 9 4 5 997.0 997.2 0.4
26/10:00pm 3.5 0.1 1.7 88 0.7 NNW 9 15 5 8 997.2 997.4 0.4
26/09:30pm 3.2 -0.2 1.7 90 0.6 NNW 9 9 5 5 997.7 997.9 0.4
26/09:00pm 3.3 0.5 2.0 91 0.5 N 6 9 3 5 998.1 998.3 0.4
26/08:30pm 3.4 0.4 1.9 90 0.6 N 7 11 4 6 998.4 998.6 0.4
26/08:00pm 4.0 0.6 2.0 87 0.8 NNW 9 13 5 7 998.7 998.9 0.4
26/07:30pm 4.3 1.0 2.5 88 0.7 NNW 9 13 5 7 999.1 999.3 0.4
26/07:00pm 4.4 1.7 2.4 87 0.8 N 6 7 3 4 999.2 999.4 0.4
26/06:30pm 4.8 1.9 2.5 85 0.9 N 7 9 4 5 999.5 999.7 0.4
26/06:00pm 5.2 1.5 2.4 82 1.1 N 11 15 6 8 999.5 999.7 0.4
26/05:30pm 5.6 1.9 2.1 78 1.4 NNW 11 17 6 9 999.5 999.7 0.4
26/05:00pm 6.0 2.7 2.3 77 1.5 NNW 9 19 5 10 999.6 999.8 0.4
26/04:30pm 6.0 1.9 2.5 78 1.4 NNW 13 26 7 14 999.5 999.7 0.4
26/04:00pm 6.4 1.0 2.7 77 1.5 NW 20 33 11 18 999.6 999.8 0.4
26/03:30pm 7.4 3.4 2.9 73 1.9 NNW 13 24 7 13 999.5 999.7 0.4
26/03:00pm 7.5 3.1 2.6 71 2.1 NW 15 30 8 16 999.2 999.4 0.4
26/02:30pm 8.4 2.6 2.4 66 2.5 WNW 22 44 12 24 998.7 998.9 0.4
26/02:00pm 7.9 1.8 2.6 69 2.2 NW 24 39 13 21 998.8 999.0 0.4
26/01:30pm 7.8 2.8 3.5 74 1.8 NW 19 30 10 16 999.0 999.2 0.4
26/01:05pm 6.9 0.0 2.8 75 1.7 WNW 28 50 15 27 999.4 999.6 0.4
26/01:00pm 7.3 1.1 2.0 69 2.2 WNW 24 41 13 22 999.3 999.5 0.4
26/12:30pm 6.9 1.6 2.8 75 1.7 NW 20 41 11 22 999.4 999.6 0.4
26/12:00pm 7.3 0.7 2.2 70 2.1 WNW 26 39 14 21 999.3 999.5 0.4
26/11:30am 6.8 0.9 1.9 71 2.0 NW 22 35 12 19 999.4 999.6 0.4
26/11:00am 5.5 -1.4 2.3 80 1.3 WNW 28 52 15 28 999.5 999.7 0.4
26/10:55am 5.9 -1.0 2.4 78 1.4 WNW 28 52 15 28 999.9 1000.1 0.2
26/10:30am 7.1 1.8 1.8 69 2.2 NW 19 32 10 17 999.0 999.2 0.0
26/10:00am 6.2 -0.1 1.7 73 1.8 NW 24 39 13 21 999.2 999.4 0.0
26/09:30am 6.3 0.8 1.6 72 1.9 NW 20 35 11 19 998.6 998.8 0.0
26/09:00am 4.4 -1.3 2.9 90 0.6 NW 22 41 12 22 998.7 998.9 11.0
26/08:56am 4.1 -2.8 2.6 90 0.6 NW 28 46 15 25 998.9 999.1 11.0
26/08:47am 4.1 -2.8 2.3 88 0.7 NW 28 48 15 26 998.7 998.9 10.4
26/08:30am 4.1 0.0 2.1 87 0.8 NW 13 17 7 9 998.3 998.5 10.2
26/08:00am 3.7 -0.8 1.9 88 0.7 NNW 15 24 8 13 997.5 997.7 9.8
26/07:30am 4.2 -0.7 1.9 85 0.9 NNW 17 24 9 13 997.4 997.6 9.6
26/07:00am 4.2 -2.1 1.7 84 1.0 WNW 24 44 13 24 997.0 997.2 9.4
26/06:30am 4.8 -0.8 1.1 77 1.5 NW 20 35 11 19 996.1 996.3 8.8
26/06:00am 4.1 -1.5 1.1 81 1.2 NW 20 32 11 17 994.9 995.1 8.6
26/05:31am 4.5 -2.6 1.2 79 1.3 NW 28 46 15 25 995.0 995.2 8.2
26/05:30am 4.7 -2.0 1.4 79 1.3 NW 26 44 14 24 995.1 995.3 8.2
26/05:00am 4.4 -0.6 1.6 82 1.1 NW 17 24 9 13 993.6 993.8 8.0
26/04:30am 4.8 -0.4 2.2 83 1.0 NW 19 35 10 19 993.9 994.1 7.2
26/04:00am 4.7 -0.6 1.7 81 1.2 NW 19 28 10 15 992.6 992.9 7.2
26/03:30am 5.0 0.4 1.8 80 1.3 WNW 15 30 8 16 992.6 992.9 7.0
26/03:00am 5.0 0.1 1.8 80 1.3 NNW 17 32 9 17 991.8 992.1 6.8
26/02:30am 4.8 -0.1 2.3 84 1.0 NNW 17 28 9 15 991.9 992.2 6.8
26/02:00am 4.1 -0.7 2.5 89 0.7 N 17 26 9 14 991.7 992.0 6.6
26/01:30am 4.2 -1.3 2.1 86 0.8 NNW 20 33 11 18 991.6 991.9 6.4
26/01:00am 4.3 -1.6 1.8 84 1.0 NW 22 37 12 20 991.5 991.7 6.2
26/12:51am 4.5 -2.5 1.9 83 1.0 NW 28 57 15 31 991.5 991.7 6.2
26/12:30am 4.0 -1.8 2.2 88 0.7 NNW 22 37 12 20 991.1 991.3 5.8
26/12:00am 4.4 -1.4 2.1 85 0.9 NW 22 33 12 18 990.8 991.0 4.6
 
Date/Time
EST
Temp
°C
App
Temp
°C
Dew
Point
°C
Rel
Hum
%
Delta-T
°C
Wind Press
QNH
hPa
Press
MSL
hPa
Rain since
9am
mm
Dir  Spd
km/h
Gust
km/h
Spd
kts
Gust
kts
25/11:30pm 4.9 -0.8 2.8 86 0.9 NW 22 32 12 17 990.9 991.1 4.0
25/11:00pm 4.6 -1.1 2.6 87 0.8 NW 22 37 12 20 990.6 990.8 3.2
25/10:30pm 5.3 0.5 2.5 82 1.1 NNW 17 28 9 15 989.1 989.3 1.8
25/10:00pm 5.1 0.8 3.0 86 0.9 NNW 15 32 8 17 989.6 989.8 1.4
25/09:30pm 5.2 1.6 3.1 86 0.9 NNW 11 22 6 12 988.8 989.0 1.4
25/09:00pm 5.8 0.2 3.5 85 1.0 NW 22 39 12 21 989.1 989.3 1.0
25/08:30pm 7.0 1.5 4.1 82 1.3 NW 22 35 12 19 987.7 987.9 0.4
25/08:00pm 7.6 4.3 4.4 80 1.4 NW 11 15 6 8 987.2 987.4 0.2
25/07:30pm 6.5 3.6 4.7 88 0.8 N 9 15 5 8 987.3 987.5 0.2
25/07:00pm 5.8 4.6 4.4 91 0.6 CALM 0 0 0 0 988.1 988.3 0.2
25/06:30pm 5.9 4.2 4.1 88 0.8 NW 2 6 1 3 988.7 988.9 0.2
25/06:00pm 5.9 3.8 4.1 88 0.8 NNW 4 7 2 4 989.5 989.7 0.2
25/05:30pm 6.3 3.8 4.0 85 1.0 WNW 6 7 3 4 990.0 990.2 0.2
25/05:00pm 7.6 4.6 4.2 79 1.5 NNE 9 13 5 7 991.3 991.5 0.2
25/04:30pm 9.2 6.6 4.4 72 2.1 NNW 7 11 4 6 992.0 992.3 0.2
25/04:00pm 10.8 7.8 4.3 64 3.0 NNW 9 13 5 7 992.7 993.0 0.2
25/03:30pm 11.1 8.3 5.2 67 2.7 WNW 9 15 5 8 993.6 993.8 0.0
25/03:00pm 11.1 6.3 4.8 65 2.9 NW 19 30 10 16 994.5 994.7 0.0
25/02:30pm 11.6 6.8 4.6 62 3.2 WNW 19 26 10 14 994.8 995.0 0.0
25/02:00pm 11.1 6.1 4.8 65 2.9 NW 20 32 11 17 995.1 995.3 0.0
25/01:30pm 10.9 6.3 5.4 69 2.5 WNW 19 30 10 16 995.7 995.9 0.0
25/01:00pm 8.5 7.2 6.0 84 1.2 E 2 13 1 7 996.3 996.5 0.0
25/12:30pm 6.0 4.6 3.8 86 0.9 CALM 0 7 0 4 997.1 997.3 0.0
25/12:00pm 5.6 3.5 3.8 88 0.8 SSE 4 9 2 5 997.6 997.8 0.0
25/11:30am 3.8 0.9 2.8 93 0.4 ESE 7 9 4 5 998.1 998.3 0.0
25/11:00am 3.0 1.1 2.9 99 0.0 ESE 2 7 1 4 998.7 998.9 0.0
25/10:30am 1.8 0.1 1.7 99 0.0 CALM 0 0 0 0 999.0 999.2 0.0
25/10:00am 0.5 -1.4 0.4 99 0.0 CALM 0 0 0 0 999.1 999.3 0.0
25/09:30am -0.1 -2.9 -0.2 99 0.0 N 4 7 2 4 999.1 999.3 0.0
25/09:00am -0.6 -2.7 -0.7 99 0.0 CALM 0 0 0 0 999.1 999.3 0.0
25/08:30am -1.0 -3.1 -1.1 99 0.0 CALM 0 0 0 0 999.4 999.6 0.0
25/08:00am -1.1 -3.3 -1.2 99 0.0 CALM 0 0 0 0 999.3 999.5 0.0
25/07:30am -1.2 -4.1 -1.3 99 0.0 NNW 4 7 2 4 999.4 999.6 0.0

Other Formats:

Comma delimited format used in spreadsheet applications
http://www.bom.gov.au/fwo/IDT60801/IDT60801.94957.axf

JavaScript Object Notation format (JSON) in row-major order
http://www.bom.gov.au/fwo/IDT60801/IDT60801.94957.json